Time,TemperatureF,DewpointF,PressureIn,WindDirection,WindDirectionDegrees,WindSpeedMPH,WindSpeedGustMPH,Humidity,HourlyPrecipIn,Conditions,Clouds,dailyrainin,SoftwareType,DateUTC
2013-08-28 00:01:00,77.1,67.4,29.98,SW,225,3.5,3.5,72,0.00,,,0.00,VWS V14.01,2013-08-28 05:01:00,
2013-08-28 00:06:00,77.1,67.4,29.98,SW,225,1.7,1.7,72,0.00,,,0.00,VWS V14.01,2013-08-28 05:06:00,
2013-08-28 00:11:00,76.8,67.1,29.98,SW,225,3.8,3.8,72,0.00,,,0.00,VWS V14.01,2013-08-28 05:11:00,
2013-08-28 00:16:00,76.8,67.5,29.98,SW,225,1.7,1.7,73,0.00,,,0.00,VWS V14.01,2013-08-28 05:16:00,
2013-08-28 00:21:00,76.8,67.5,29.98,SW,225,3.5,3.5,73,0.00,,,0.00,VWS V14.01,2013-08-28 05:21:00,
2013-08-28 00:26:00,76.8,67.5,29.98,SW,225,7.6,7.6,73,0.00,,,0.00,VWS V14.01,2013-08-28 05:26:00,
2013-08-28 00:31:00,76.6,67.3,29.99,SW,225,2.6,2.6,73,0.00,,,0.00,VWS V14.01,2013-08-28 05:31:00,
2013-08-28 00:36:00,76.4,67.5,29.99,SW,225,2.6,2.6,74,0.00,,,0.00,VWS V14.01,2013-08-28 05:36:00,
2013-08-28 00:41:00,76.2,67.3,29.99,SW,225,4.0,4.0,74,0.00,,,0.00,VWS V14.01,2013-08-28 05:41:00,
2013-08-28 00:46:00,76.1,67.2,29.98,SW,225,2.0,2.0,74,0.00,,,0.00,VWS V14.01,2013-08-28 05:46:00,
2013-08-28 00:51:00,75.9,67.0,29.99,SW,225,4.4,4.4,74,0.00,,,0.00,VWS V14.01,2013-08-28 05:51:00,
2013-08-28 00:56:00,75.9,67.4,29.99,SW,225,1.5,1.5,75,0.00,,,0.00,VWS V14.01,2013-08-28 05:56:00,
2013-08-28 01:01:00,75.7,67.2,29.99,SW,225,2.0,2.0,75,0.00,,,0.00,VWS V14.01,2013-08-28 06:01:00,
2013-08-28 01:06:00,75.5,67.0,29.99,WSW,248,2.6,2.6,75,0.00,,,0.00,VWS V14.01,2013-08-28 06:06:00,
2013-08-28 01:11:00,75.3,67.2,29.98,SW,225,3.5,3.5,76,0.00,,,0.00,VWS V14.01,2013-08-28 06:11:00,
2013-08-28 01:16:00,75.3,67.2,29.98,SW,225,4.0,4.0,76,0.00,,,0.00,VWS V14.01,2013-08-28 06:16:00,
2013-08-28 01:21:00,75.2,67.1,29.99,SW,225,1.3,1.3,76,0.00,,,0.00,VWS V14.01,2013-08-28 06:21:00,
2013-08-28 01:26:00,75.0,66.9,29.99,WSW,248,0.0,0.0,76,0.00,,,0.00,VWS V14.01,2013-08-28 06:26:00,
2013-08-28 01:31:00,74.8,66.7,29.99,SW,225,0.0,0.0,76,0.00,,,0.00,VWS V14.01,2013-08-28 06:31:00,
2013-08-28 01:36:00,74.3,66.6,29.99,WSW,248,0.0,0.0,77,0.00,,,0.00,VWS V14.01,2013-08-28 06:36:00,
2013-08-28 01:41:00,73.7,66.4,29.99,SW,225,0.0,0.0,78,0.00,,,0.00,VWS V14.01,2013-08-28 06:41:00,
2013-08-28 01:46:00,73.2,65.9,29.99,SW,225,0.0,0.0,78,0.00,,,0.00,VWS V14.01,2013-08-28 06:46:00,
2013-08-28 01:51:00,73.2,66.3,29.99,WSW,248,2.9,2.9,79,0.00,,,0.00,VWS V14.01,2013-08-28 06:51:00,
2013-08-28 01:56:00,73.0,66.5,29.98,SW,225,2.4,2.4,80,0.00,,,0.00,VWS V14.01,2013-08-28 06:56:00,
2013-08-28 02:01:00,73.0,66.5,29.98,SW,225,2.4,2.4,80,0.00,,,0.00,VWS V14.01,2013-08-28 07:01:00,
2013-08-28 02:06:00,73.0,66.5,29.98,SW,225,1.1,1.1,80,0.00,,,0.00,VWS V14.01,2013-08-28 07:06:00,
2013-08-28 02:11:00,73.2,66.7,29.98,SW,225,3.3,3.3,80,0.00,,,0.00,VWS V14.01,2013-08-28 07:11:00,
2013-08-28 02:14:00,73.2,66.7,29.98,SW,225,3.1,3.1,80,0.00,,,0.00,VWS V14.01,2013-08-28 07:14:00,
2013-08-28 02:19:00,73.5,66.6,29.98,SW,225,3.1,3.1,79,0.00,,,0.00,VWS V14.01,2013-08-28 07:19:00,
2013-08-28 02:24:00,74.1,67.2,29.98,SW,225,4.0,4.0,79,0.00,,,0.00,VWS V14.01,2013-08-28 07:24:00,
2013-08-28 02:29:00,74.3,67.0,29.97,SW,225,5.3,5.3,78,0.00,,,0.00,VWS V14.01,2013-08-28 07:29:00,
2013-08-28 02:34:00,74.4,67.1,29.98,SW,225,6.2,6.2,78,0.00,,,0.00,VWS V14.01,2013-08-28 07:34:00,
2013-08-28 02:39:00,74.4,67.1,29.97,SSW,202,6.2,6.2,78,0.00,,,0.00,VWS V14.01,2013-08-28 07:39:00,
2013-08-28 02:44:00,74.4,67.1,29.98,SSW,202,1.1,1.1,78,0.00,,,0.00,VWS V14.01,2013-08-28 07:44:00,
2013-08-28 02:49:00,74.4,67.1,29.98,SW,225,1.3,1.3,78,0.00,,,0.00,VWS V14.01,2013-08-28 07:49:00,
2013-08-28 02:54:00,74.3,67.0,29.97,SW,225,3.1,3.1,78,0.00,,,0.00,VWS V14.01,2013-08-28 07:54:00,
2013-08-28 02:59:00,74.3,67.0,29.98,SW,225,5.5,5.5,78,0.00,,,0.00,VWS V14.01,2013-08-28 07:59:00,
2013-08-28 03:04:00,74.3,67.0,29.98,SW,225,5.3,5.3,78,0.00,,,0.00,VWS V14.01,2013-08-28 08:04:00,
2013-08-28 03:09:00,74.1,67.2,29.98,SW,225,0.0,0.0,79,0.00,,,0.00,VWS V14.01,2013-08-28 08:09:00,
2013-08-28 03:14:00,73.9,67.0,29.98,SW,225,5.3,5.3,79,0.00,,,0.00,VWS V14.01,2013-08-28 08:14:00,
2013-08-28 03:18:00,73.9,67.0,29.98,SW,225,2.9,2.9,79,0.00,,,0.00,VWS V14.01,2013-08-28 08:18:00,
2013-08-28 03:24:00,73.9,67.3,29.98,SW,225,6.4,6.4,80,0.00,,,0.00,VWS V14.01,2013-08-28 08:24:00,
2013-08-28 03:29:00,73.7,67.2,29.97,WSW,248,2.0,2.0,80,0.00,,,0.00,VWS V14.01,2013-08-28 08:29:00,
2013-08-28 03:33:00,73.7,67.2,29.97,WSW,248,1.7,1.7,80,0.00,,,0.00,VWS V14.01,2013-08-28 08:33:00,
2013-08-28 03:38:00,73.7,67.2,29.97,SW,225,5.1,5.1,80,0.00,,,0.00,VWS V14.01,2013-08-28 08:38:00,
2013-08-28 03:43:00,73.5,67.0,29.98,SW,225,2.9,2.9,80,0.00,,,0.00,VWS V14.01,2013-08-28 08:43:00,
2013-08-28 03:48:00,73.2,66.7,29.97,SW,225,3.5,3.5,80,0.00,,,0.00,VWS V14.01,2013-08-28 08:48:00,
2013-08-28 03:53:00,73.2,66.7,29.98,SW,225,2.6,2.6,80,0.00,,,0.00,VWS V14.01,2013-08-28 08:53:00,
2013-08-28 03:58:00,73.0,66.5,29.97,SW,225,0.6,0.6,80,0.00,,,0.00,VWS V14.01,2013-08-28 08:58:00,
2013-08-28 04:03:00,72.8,66.6,29.97,SW,225,1.5,1.5,81,0.00,,,0.00,VWS V14.01,2013-08-28 09:03:00,
2013-08-28 04:08:00,72.6,66.4,29.98,West,270,0.0,0.0,81,0.00,,,0.00,VWS V14.01,2013-08-28 09:08:00,
2013-08-28 04:13:00,72.5,66.3,29.98,SW,225,0.6,0.6,81,0.00,,,0.00,VWS V14.01,2013-08-28 09:13:00,
2013-08-28 04:18:00,72.3,66.2,29.98,SW,225,2.9,2.9,81,0.00,,,0.00,VWS V14.01,2013-08-28 09:18:00,
2013-08-28 04:23:00,71.9,66.1,29.98,WSW,248,1.5,1.5,82,0.00,,,0.00,VWS V14.01,2013-08-28 09:23:00,
2013-08-28 04:28:00,71.7,65.9,29.98,SW,225,0.0,0.0,82,0.00,,,0.00,VWS V14.01,2013-08-28 09:28:00,
2013-08-28 04:33:00,71.6,65.8,29.98,WSW,248,0.0,0.0,82,0.00,,,0.00,VWS V14.01,2013-08-28 09:33:00,
2013-08-28 04:34:00,71.4,65.6,29.98,WSW,248,0.0,0.0,82,0.00,,,0.00,VWS V14.01,2013-08-28 09:34:00,
2013-08-28 04:39:00,71.2,65.4,29.98,WSW,248,0.0,0.0,82,0.00,,,0.00,VWS V14.01,2013-08-28 09:39:00,
2013-08-28 04:44:00,70.8,65.4,29.99,WSW,248,0.0,0.0,83,0.00,,,0.00,VWS V14.01,2013-08-28 09:44:00,
2013-08-28 04:49:00,70.8,65.4,29.98,SW,225,0.0,0.0,83,0.00,,,0.00,VWS V14.01,2013-08-28 09:49:00,
2013-08-28 04:54:00,70.7,65.3,29.99,WSW,248,0.0,0.0,83,0.00,,,0.00,VWS V14.01,2013-08-28 09:54:00,
2013-08-28 04:59:00,70.7,65.3,29.99,WSW,248,0.0,0.0,83,0.00,,,0.00,VWS V14.01,2013-08-28 09:59:00,
2013-08-28 05:04:00,70.5,65.1,29.99,WSW,248,0.0,0.0,83,0.00,,,0.00,VWS V14.01,2013-08-28 10:04:00,
2013-08-28 05:09:00,70.5,65.4,30.00,WSW,248,0.0,0.0,84,0.00,,,0.00,VWS V14.01,2013-08-28 10:09:00,
2013-08-28 05:14:00,70.7,65.6,30.00,WSW,248,0.0,0.0,84,0.00,,,0.00,VWS V14.01,2013-08-28 10:14:00,
2013-08-28 05:19:00,70.7,65.6,29.99,WSW,248,0.0,0.0,84,0.00,,,0.00,VWS V14.01,2013-08-28 10:19:00,
2013-08-28 05:24:00,70.8,65.7,29.99,WSW,248,0.0,0.0,84,0.00,,,0.00,VWS V14.01,2013-08-28 10:24:00,
2013-08-28 05:29:00,70.8,65.7,29.99,SW,225,0.4,0.4,84,0.00,,,0.00,VWS V14.01,2013-08-28 10:29:00,
2013-08-28 05:34:00,70.8,65.7,29.99,WSW,248,0.0,0.0,84,0.00,,,0.00,VWS V14.01,2013-08-28 10:34:00,
2013-08-28 05:39:00,70.8,65.7,30.00,West,270,0.0,0.0,84,0.00,,,0.00,VWS V14.01,2013-08-28 10:39:00,
2013-08-28 05:44:00,70.7,65.6,30.00,WSW,248,0.0,0.0,84,0.00,,,0.00,VWS V14.01,2013-08-28 10:44:00,
2013-08-28 05:49:00,70.7,65.6,30.00,WSW,248,0.0,0.0,84,0.00,,,0.00,VWS V14.01,2013-08-28 10:49:00,
2013-08-28 05:54:00,70.7,65.6,30.00,WSW,248,0.0,0.0,84,0.00,,,0.00,VWS V14.01,2013-08-28 10:54:00,
2013-08-28 05:59:00,70.7,65.6,30.00,SW,225,0.0,0.0,84,0.00,,,0.00,VWS V14.01,2013-08-28 10:59:00,
2013-08-28 06:04:00,70.5,65.8,30.00,SW,225,0.0,0.0,85,0.00,,,0.00,VWS V14.01,2013-08-28 11:04:00,
2013-08-28 06:09:00,70.5,65.8,30.01,SW,225,1.1,1.1,85,0.00,,,0.00,VWS V14.01,2013-08-28 11:09:00,
2013-08-28 06:14:00,70.5,65.8,30.01,WSW,248,0.0,0.0,85,0.00,,,0.00,VWS V14.01,2013-08-28 11:14:00,
2013-08-28 06:19:00,70.5,65.8,30.01,SW,225,0.4,0.4,85,0.00,,,0.00,VWS V14.01,2013-08-28 11:19:00,
2013-08-28 06:24:00,70.5,65.8,30.02,SW,225,0.2,0.2,85,0.00,,,0.00,VWS V14.01,2013-08-28 11:24:00,
2013-08-28 06:29:00,70.3,65.6,30.02,SW,225,0.8,0.8,85,0.00,,,0.00,VWS V14.01,2013-08-28 11:29:00,
2013-08-28 06:34:00,70.3,65.6,30.02,SW,225,0.8,0.8,85,0.00,,,0.00,VWS V14.01,2013-08-28 11:34:00,
2013-08-28 06:39:00,70.5,65.8,30.02,SW,225,0.0,0.0,85,0.00,,,0.00,VWS V14.01,2013-08-28 11:39:00,
2013-08-28 06:44:00,70.7,66.0,30.02,WSW,248,2.2,2.2,85,0.00,,,0.00,VWS V14.01,2013-08-28 11:44:00,
2013-08-28 06:49:00,70.8,66.1,30.02,SW,225,2.2,2.2,85,0.00,,,0.00,VWS V14.01,2013-08-28 11:49:00,
2013-08-28 06:54:00,71.7,66.6,30.03,SW,225,0.8,0.8,84,0.00,,,0.00,VWS V14.01,2013-08-28 11:54:00,
2013-08-28 06:59:00,72.8,67.7,30.03,SW,225,0.0,0.0,84,0.00,,,0.00,VWS V14.01,2013-08-28 11:59:00,
2013-08-28 07:04:00,73.5,67.7,30.02,SSW,202,0.6,0.6,82,0.00,,,0.00,VWS V14.01,2013-08-28 12:04:00,
2013-08-28 07:09:00,74.3,68.1,30.02,WNW,292,1.1,1.1,81,0.00,,,0.00,VWS V14.01,2013-08-28 12:09:00,
2013-08-28 07:14:00,75.0,68.4,30.03,West,270,0.0,0.0,80,0.00,,,0.00,VWS V14.01,2013-08-28 12:14:00,
2013-08-28 07:19:00,75.5,68.5,30.02,West,270,0.0,0.0,79,0.00,,,0.00,VWS V14.01,2013-08-28 12:19:00,
2013-08-28 07:24:00,76.4,69.0,30.03,SW,225,2.0,2.0,78,0.00,,,0.00,VWS V14.01,2013-08-28 12:24:00,
2013-08-28 07:29:00,76.8,69.1,30.03,SW,225,0.4,0.4,77,0.00,,,0.00,VWS V14.01,2013-08-28 12:29:00,
2013-08-28 07:34:00,77.1,69.3,30.03,West,270,0.6,0.6,77,0.00,,,0.00,VWS V14.01,2013-08-28 12:34:00,
2013-08-28 07:39:00,77.7,69.5,30.02,SW,225,0.8,0.8,76,0.00,,,0.00,VWS V14.01,2013-08-28 12:39:00,
2013-08-28 07:44:00,78.6,70.0,30.03,WSW,248,0.0,0.0,75,0.00,,,0.00,VWS V14.01,2013-08-28 12:44:00,
2013-08-28 07:49:00,78.9,69.9,30.03,West,270,0.2,0.2,74,0.00,,,0.00,VWS V14.01,2013-08-28 12:49:00,
2013-08-28 07:54:00,77.5,69.0,30.03,West,270,0.0,0.0,75,0.00,,,0.00,VWS V14.01,2013-08-28 12:54:00,
2013-08-28 07:59:00,76.1,68.0,30.03,West,270,0.0,0.0,76,0.00,,,0.00,VWS V14.01,2013-08-28 12:59:00,
2013-08-28 08:04:00,75.3,68.0,30.03,WSW,248,0.0,0.0,78,0.00,,,0.00,VWS V14.01,2013-08-28 13:04:00,
2013-08-28 08:09:00,75.0,68.4,30.03,WSW,248,0.0,0.0,80,0.00,,,0.00,VWS V14.01,2013-08-28 13:09:00,
2013-08-28 08:14:00,75.3,68.7,30.04,West,270,0.0,0.0,80,0.00,,,0.00,VWS V14.01,2013-08-28 13:14:00,
2013-08-28 08:19:00,75.9,69.3,30.03,West,270,0.0,0.0,80,0.00,,,0.00,VWS V14.01,2013-08-28 13:19:00,
2013-08-28 08:24:00,76.8,69.8,30.03,SW,225,0.0,0.0,79,0.00,,,0.00,VWS V14.01,2013-08-28 13:24:00,
2013-08-28 08:29:00,77.5,70.1,30.03,West,270,0.6,0.6,78,0.00,,,0.00,VWS V14.01,2013-08-28 13:29:00,
2013-08-28 08:34:00,78.0,70.6,30.03,West,270,1.1,1.1,78,0.00,,,0.00,VWS V14.01,2013-08-28 13:34:00,
2013-08-28 08:39:00,78.9,71.1,30.04,NNW,338,4.2,4.2,77,0.00,,,0.00,VWS V14.01,2013-08-28 13:39:00,
2013-08-28 08:44:00,79.3,71.1,30.04,West,270,3.8,3.8,76,0.00,,,0.00,VWS V14.01,2013-08-28 13:44:00,
2013-08-28 08:49:00,79.7,71.1,30.03,WNW,292,0.0,0.0,75,0.00,,,0.00,VWS V14.01,2013-08-28 13:49:00,
2013-08-28 08:54:00,80.7,71.7,30.03,WNW,292,3.8,3.8,74,0.00,,,0.00,VWS V14.01,2013-08-28 13:54:00,
2013-08-28 08:59:00,80.6,71.2,30.03,WNW,292,3.5,3.5,73,0.00,,,0.00,VWS V14.01,2013-08-28 13:59:00,
2013-08-28 09:04:00,81.5,72.4,30.04,WNW,292,4.0,4.0,74,0.00,,,0.00,VWS V14.01,2013-08-28 14:04:00,
2013-08-28 09:09:00,84.3,73.9,30.04,WNW,292,0.6,0.6,71,0.00,,,0.00,VWS V14.01,2013-08-28 14:09:00,
2013-08-28 09:14:00,86.3,74.5,30.04,WNW,292,4.9,4.9,68,0.00,,,0.00,VWS V14.01,2013-08-28 14:14:00,
2013-08-28 09:19:00,86.7,74.0,30.04,NW,315,2.9,2.9,66,0.00,,,0.00,VWS V14.01,2013-08-28 14:19:00,
2013-08-28 09:24:00,87.6,74.8,30.04,NNW,338,1.1,1.1,66,0.00,,,0.00,VWS V14.01,2013-08-28 14:24:00,
2013-08-28 09:29:00,88.5,74.8,30.04,NW,315,7.3,7.3,64,0.00,,,0.00,VWS V14.01,2013-08-28 14:29:00,
2013-08-28 09:34:00,89.6,75.8,30.04,NNW,338,0.0,0.0,64,0.00,,,0.00,VWS V14.01,2013-08-28 14:34:00,
2013-08-28 09:39:00,89.9,75.6,30.04,NNW,338,0.0,0.0,63,0.00,,,0.00,VWS V14.01,2013-08-28 14:39:00,
2013-08-28 09:44:00,90.1,75.3,30.04,WNW,292,0.6,0.6,62,0.00,,,0.00,VWS V14.01,2013-08-28 14:44:00,
2013-08-28 09:49:00,90.1,75.8,30.04,NNW,338,2.4,2.4,63,0.00,,,0.00,VWS V14.01,2013-08-28 14:49:00,
2013-08-28 09:54:00,90.5,75.7,30.05,NW,315,0.0,0.0,62,0.00,,,0.00,VWS V14.01,2013-08-28 14:54:00,
2013-08-28 09:59:00,90.6,75.8,30.05,WNW,292,1.1,1.1,62,0.00,,,0.00,VWS V14.01,2013-08-28 14:59:00,
2013-08-28 10:04:00,89.2,75.4,30.05,NNE,22,4.9,4.9,64,0.00,,,0.00,VWS V14.01,2013-08-28 15:04:00,
2013-08-28 10:08:00,88.1,75.3,30.05,North,0,5.3,5.3,66,0.00,,,0.00,VWS V14.01,2013-08-28 15:08:00,
2013-08-28 10:13:00,88.3,76.0,30.05,NNW,338,3.5,3.5,67,0.00,,,0.00,VWS V14.01,2013-08-28 15:13:00,
2013-08-28 10:18:00,87.9,75.1,30.05,North,0,4.2,4.2,66,0.00,,,0.00,VWS V14.01,2013-08-28 15:18:00,
2013-08-28 10:23:00,87.6,75.7,30.05,North,0,3.1,3.1,68,0.00,,,0.00,VWS V14.01,2013-08-28 15:23:00,
2013-08-28 10:28:00,88.1,75.8,30.05,North,0,4.0,4.0,67,0.00,,,0.00,VWS V14.01,2013-08-28 15:28:00,
2013-08-28 10:33:00,88.7,75.9,30.06,NNE,22,6.0,6.0,66,0.00,,,0.00,VWS V14.01,2013-08-28 15:33:00,
2013-08-28 10:38:00,88.3,76.0,30.06,NNE,22,2.9,2.9,67,0.00,,,0.00,VWS V14.01,2013-08-28 15:38:00,
2013-08-28 10:43:00,88.8,76.0,30.06,NE,45,0.8,0.8,66,0.00,,,0.00,VWS V14.01,2013-08-28 15:43:00,
2013-08-28 10:48:00,87.8,75.9,30.05,NE,45,2.0,2.0,68,0.00,,,0.00,VWS V14.01,2013-08-28 15:48:00,
2013-08-28 10:53:00,88.3,76.0,30.06,NE,45,6.9,6.9,67,0.00,,,0.00,VWS V14.01,2013-08-28 15:53:00,
2013-08-28 10:58:00,87.9,76.0,30.06,NNE,22,5.5,5.5,68,0.00,,,0.00,VWS V14.01,2013-08-28 15:58:00,
2013-08-28 11:03:00,87.2,75.8,30.06,NE,45,2.6,2.6,69,0.00,,,0.00,VWS V14.01,2013-08-28 16:03:00,
2013-08-28 11:08:00,86.5,75.6,30.06,NNE,22,1.1,1.1,70,0.00,,,0.00,VWS V14.01,2013-08-28 16:08:00,
2013-08-28 11:13:00,86.5,76.0,30.07,NNE,22,8.0,8.0,71,0.00,,,0.00,VWS V14.01,2013-08-28 16:13:00,
2013-08-28 11:18:00,85.2,75.6,30.07,ENE,68,5.5,5.5,73,0.00,,,0.00,VWS V14.01,2013-08-28 16:18:00,
2013-08-28 11:23:00,85.2,76.4,30.06,ENE,68,7.1,7.1,75,0.00,,,0.00,VWS V14.01,2013-08-28 16:23:00,
2013-08-28 11:28:00,84.9,75.7,30.06,NE,45,2.0,2.0,74,0.00,,,0.00,VWS V14.01,2013-08-28 16:28:00,
2013-08-28 11:33:00,85.6,76.4,30.06,NE,45,2.6,2.6,74,0.00,,,0.00,VWS V14.01,2013-08-28 16:33:00,
2013-08-28 11:38:00,85.4,75.8,30.06,NE,45,9.1,9.1,73,0.00,,,0.00,VWS V14.01,2013-08-28 16:38:00,
2013-08-28 11:43:00,85.1,75.9,30.07,East,90,11.6,11.6,74,0.00,,,0.00,VWS V14.01,2013-08-28 16:43:00,
2013-08-28 11:48:00,84.7,75.9,30.07,NE,45,5.5,5.5,75,0.00,,,0.00,VWS V14.01,2013-08-28 16:48:00,
2013-08-28 11:53:00,84.9,76.1,30.07,NE,45,7.1,7.1,75,0.00,,,0.00,VWS V14.01,2013-08-28 16:53:00,
2013-08-28 11:58:00,84.9,75.7,30.07,NNE,22,6.9,6.9,74,0.00,,,0.00,VWS V14.01,2013-08-28 16:58:00,
2013-08-28 12:03:00,85.2,76.4,30.06,ENE,68,10.0,10.0,75,0.00,,,0.00,VWS V14.01,2013-08-28 17:03:00,
2013-08-28 12:08:00,84.9,75.7,30.06,NE,45,5.3,5.3,74,0.00,,,0.00,VWS V14.01,2013-08-28 17:08:00,
2013-08-28 12:13:00,84.7,75.9,30.06,NNE,22,9.3,9.3,75,0.00,,,0.00,VWS V14.01,2013-08-28 17:13:00,
2013-08-28 12:18:00,85.2,76.0,30.06,NNE,22,7.3,7.3,74,0.00,,,0.00,VWS V14.01,2013-08-28 17:18:00,
2013-08-28 12:23:00,85.8,76.6,30.06,ENE,68,6.4,6.4,74,0.00,,,0.00,VWS V14.01,2013-08-28 17:23:00,
2013-08-28 12:28:00,86.0,76.3,30.06,ENE,68,4.2,4.2,73,0.00,,,0.00,VWS V14.01,2013-08-28 17:28:00,
2013-08-28 12:33:00,86.9,76.8,30.05,NE,45,5.8,5.8,72,0.00,,,0.00,VWS V14.01,2013-08-28 17:33:00,
2013-08-28 12:38:00,87.4,76.8,30.06,NNE,22,4.9,4.9,71,0.00,,,0.00,VWS V14.01,2013-08-28 17:38:00,
2013-08-28 12:43:00,88.3,77.7,30.05,North,0,1.1,1.1,71,0.00,,,0.00,VWS V14.01,2013-08-28 17:43:00,
2013-08-28 12:48:00,88.3,77.3,30.06,NE,45,0.0,0.0,70,0.00,,,0.00,VWS V14.01,2013-08-28 17:48:00,
2013-08-28 12:53:00,89.2,77.7,30.06,NNE,22,7.3,7.3,69,0.00,,,0.00,VWS V14.01,2013-08-28 17:53:00,
2013-08-28 12:58:00,89.4,77.9,30.05,WNW,292,0.0,0.0,69,0.00,,,0.00,VWS V14.01,2013-08-28 17:58:00,
2013-08-28 13:03:00,89.0,77.5,30.05,NNW,338,5.1,5.1,69,0.00,,,0.00,VWS V14.01,2013-08-28 18:03:00,
2013-08-28 13:08:00,89.0,77.9,30.05,SE,135,6.4,6.4,70,0.00,,,0.00,VWS V14.01,2013-08-28 18:08:00,
2013-08-28 13:13:00,88.8,77.3,30.05,North,0,6.2,6.2,69,0.00,,,0.00,VWS V14.01,2013-08-28 18:13:00,
2013-08-28 13:18:00,88.5,77.5,30.06,NNE,22,8.2,8.2,70,0.00,,,0.00,VWS V14.01,2013-08-28 18:18:00,
2013-08-28 13:23:00,88.8,77.3,30.06,NNE,22,6.4,6.4,69,0.00,,,0.00,VWS V14.01,2013-08-28 18:23:00,
2013-08-28 13:28:00,87.6,76.6,30.06,NE,45,4.0,4.0,70,0.00,,,0.00,VWS V14.01,2013-08-28 18:28:00,
2013-08-28 13:33:00,88.1,77.5,30.06,NE,45,7.1,7.1,71,0.00,,,0.00,VWS V14.01,2013-08-28 18:33:00,
2013-08-28 13:38:00,88.1,77.1,30.05,NNE,22,0.0,0.0,70,0.00,,,0.00,VWS V14.01,2013-08-28 18:38:00,
2013-08-28 13:43:00,88.8,77.3,30.06,ESE,112,6.2,6.2,69,0.00,,,0.00,VWS V14.01,2013-08-28 18:43:00,
2013-08-28 13:48:00,88.3,77.3,30.06,ESE,112,5.3,5.3,70,0.00,,,0.00,VWS V14.01,2013-08-28 18:48:00,
2013-08-28 13:53:00,89.6,77.6,30.05,ENE,68,4.9,4.9,68,0.00,,,0.00,VWS V14.01,2013-08-28 18:53:00,
2013-08-28 13:58:00,88.5,77.0,30.06,NNE,22,4.9,4.9,69,0.00,,,0.00,VWS V14.01,2013-08-28 18:58:00,
2013-08-28 14:03:00,88.1,77.1,30.06,NNE,22,0.0,0.0,70,0.00,,,0.00,VWS V14.01,2013-08-28 19:03:00,
2013-08-28 14:08:00,89.2,77.7,30.06,NNE,22,7.1,7.1,69,0.00,,,0.00,VWS V14.01,2013-08-28 19:08:00,
2013-08-28 14:13:00,88.5,77.0,30.05,North,0,5.3,5.3,69,0.00,,,0.00,VWS V14.01,2013-08-28 19:13:00,
2013-08-28 14:18:00,87.8,76.8,30.06,NE,45,0.0,0.0,70,0.00,,,0.00,VWS V14.01,2013-08-28 19:18:00,
2013-08-28 14:23:00,89.4,78.3,30.05,NNW,338,3.8,3.8,70,0.00,,,0.00,VWS V14.01,2013-08-28 19:23:00,
2013-08-28 14:28:00,90.8,78.3,30.06,North,0,5.3,5.3,67,0.00,,,0.00,VWS V14.01,2013-08-28 19:28:00,
2013-08-28 14:33:00,89.7,77.3,30.06,North,0,8.9,8.9,67,0.00,,,0.00,VWS V14.01,2013-08-28 19:33:00,
2013-08-28 14:38:00,89.4,77.4,30.06,North,0,6.4,6.4,68,0.00,,,0.00,VWS V14.01,2013-08-28 19:38:00,
2013-08-28 14:43:00,88.5,77.0,30.06,NNE,22,3.5,3.5,69,0.00,,,0.00,VWS V14.01,2013-08-28 19:43:00,
2013-08-28 14:48:00,87.4,76.8,30.06,NNE,22,6.9,6.9,71,0.00,,,0.00,VWS V14.01,2013-08-28 19:48:00,
2013-08-28 14:53:00,86.9,76.8,30.06,NE,45,6.2,6.2,72,0.00,,,0.00,VWS V14.01,2013-08-28 19:53:00,
2013-08-28 14:58:00,87.6,77.0,30.05,NNE,22,6.0,6.0,71,0.00,,,0.00,VWS V14.01,2013-08-28 19:58:00,
2013-08-28 15:03:00,87.8,77.2,30.06,NE,45,6.9,6.9,71,0.00,,,0.00,VWS V14.01,2013-08-28 20:03:00,
2013-08-28 15:08:00,87.9,77.3,30.06,ENE,68,6.9,6.9,71,0.00,,,0.00,VWS V14.01,2013-08-28 20:08:00,
2013-08-28 15:13:00,88.1,77.5,30.06,NNE,22,6.0,6.0,71,0.00,,,0.00,VWS V14.01,2013-08-28 20:13:00,
2013-08-28 15:18:00,88.5,77.5,30.06,NE,45,3.8,6.9,70,0.00,,,0.00,VWS V14.01,2013-08-28 20:18:00,
2013-08-28 15:23:00,89.2,77.7,30.06,North,0,2.2,9.1,69,0.00,,,0.00,VWS V14.01,2013-08-28 20:23:00,
2013-08-28 15:28:00,89.4,77.4,30.06,NE,45,3.5,3.5,68,0.00,,,0.00,VWS V14.01,2013-08-28 20:28:00,
2013-08-28 15:33:00,89.6,78.1,30.06,NE,45,6.4,6.4,69,0.00,,,0.00,VWS V14.01,2013-08-28 20:33:00,
2013-08-28 15:38:00,89.2,78.1,30.06,NE,45,6.2,6.2,70,0.00,,,0.00,VWS V14.01,2013-08-28 20:38:00,
2013-08-28 15:43:00,89.0,77.5,30.06,NNE,22,6.2,6.2,69,0.00,,,0.00,VWS V14.01,2013-08-28 20:43:00,
2013-08-28 15:48:00,89.2,77.7,30.06,NNW,338,6.2,6.2,69,0.00,,,0.00,VWS V14.01,2013-08-28 20:48:00,
2013-08-28 15:53:00,89.0,77.5,30.06,NNE,22,6.9,6.9,69,0.00,,,0.00,VWS V14.01,2013-08-28 20:53:00,
2013-08-28 15:58:00,88.8,77.3,30.06,NE,45,5.8,5.8,69,0.00,,,0.00,VWS V14.01,2013-08-28 20:58:00,
2013-08-28 16:03:00,89.2,77.7,30.06,North,0,8.0,8.0,69,0.00,,,0.00,VWS V14.01,2013-08-28 21:03:00,
2013-08-28 16:08:00,89.4,77.4,30.06,North,0,4.2,4.2,68,0.00,,,0.00,VWS V14.01,2013-08-28 21:08:00,
2013-08-28 16:13:00,89.9,77.9,30.06,NNE,22,7.1,7.1,68,0.00,,,0.00,VWS V14.01,2013-08-28 21:13:00,
2013-08-28 16:18:00,89.4,77.9,30.06,ENE,68,7.3,7.3,69,0.00,,,0.00,VWS V14.01,2013-08-28 21:18:00,
2013-08-28 16:23:00,87.4,76.8,30.06,ENE,68,5.1,5.1,71,0.00,,,0.00,VWS V14.01,2013-08-28 21:23:00,
2013-08-28 16:28:00,87.6,77.5,30.06,NE,45,9.8,9.8,72,0.00,,,0.00,VWS V14.01,2013-08-28 21:28:00,
2013-08-28 16:33:00,87.6,77.0,30.06,NE,45,6.7,6.7,71,0.00,,,0.00,VWS V14.01,2013-08-28 21:33:00,
2013-08-28 16:38:00,87.4,77.3,30.06,NNE,22,8.9,8.9,72,0.00,,,0.00,VWS V14.01,2013-08-28 21:38:00,
2013-08-28 16:43:00,86.9,76.8,30.06,NNE,22,8.0,8.0,72,0.00,,,0.00,VWS V14.01,2013-08-28 21:43:00,
2013-08-28 16:48:00,86.9,76.8,30.06,ENE,68,10.5,10.5,72,0.00,,,0.00,VWS V14.01,2013-08-28 21:48:00,
2013-08-28 16:53:00,86.5,76.8,30.06,NE,45,11.4,11.4,73,0.00,,,0.00,VWS V14.01,2013-08-28 21:53:00,
2013-08-28 16:58:00,86.0,76.3,30.06,NE,45,10.2,10.2,73,0.00,,,0.00,VWS V14.01,2013-08-28 21:58:00,
2013-08-28 17:03:00,86.3,76.6,30.06,NE,45,10.2,10.2,73,0.00,,,0.00,VWS V14.01,2013-08-28 22:03:00,
2013-08-28 17:08:00,86.1,76.4,30.06,NE,45,8.0,8.0,73,0.00,,,0.00,VWS V14.01,2013-08-28 22:08:00,
2013-08-28 17:13:00,85.8,76.6,30.06,NNE,22,9.8,9.8,74,0.00,,,0.00,VWS V14.01,2013-08-28 22:13:00,
2013-08-28 17:18:00,85.6,76.4,30.06,NE,45,6.7,6.7,74,0.00,,,0.00,VWS V14.01,2013-08-28 22:18:00,
2013-08-28 17:23:00,85.4,76.2,30.06,NE,45,6.4,6.4,74,0.00,,,0.00,VWS V14.01,2013-08-28 22:23:00,
2013-08-28 17:28:00,85.2,76.0,30.07,NNE,22,8.9,8.9,74,0.00,,,0.00,VWS V14.01,2013-08-28 22:28:00,
2013-08-28 17:33:00,85.6,76.4,30.06,NNE,22,7.8,7.8,74,0.00,,,0.00,VWS V14.01,2013-08-28 22:33:00,
2013-08-28 17:38:00,85.6,76.4,30.06,NE,45,10.0,10.0,74,0.00,,,0.00,VWS V14.01,2013-08-28 22:38:00,
2013-08-28 17:43:00,84.9,75.7,30.07,ENE,68,6.9,6.9,74,0.00,,,0.00,VWS V14.01,2013-08-28 22:43:00,
2013-08-28 17:48:00,84.7,75.9,30.07,NNE,22,9.8,9.8,75,0.00,,,0.00,VWS V14.01,2013-08-28 22:48:00,
2013-08-28 17:53:00,84.3,75.5,30.07,NE,45,8.5,8.5,75,0.00,,,0.00,VWS V14.01,2013-08-28 22:53:00,
2013-08-28 17:58:00,83.8,75.0,30.07,NNE,22,12.0,12.0,75,0.00,,,0.00,VWS V14.01,2013-08-28 22:58:00,
2013-08-28 18:03:00,83.1,74.8,30.07,ENE,68,4.9,4.9,76,0.00,,,0.00,VWS V14.01,2013-08-28 23:03:00,
2013-08-28 18:08:00,83.1,75.2,30.07,NE,45,7.1,7.1,77,0.00,,,0.00,VWS V14.01,2013-08-28 23:08:00,
2013-08-28 18:13:00,82.9,74.6,30.07,NE,45,9.3,9.3,76,0.00,,,0.00,VWS V14.01,2013-08-28 23:13:00,
2013-08-28 18:18:00,82.9,74.6,30.07,ENE,68,6.7,6.7,76,0.00,,,0.00,VWS V14.01,2013-08-28 23:18:00,
2013-08-28 18:23:00,82.9,74.6,30.08,ENE,68,5.5,5.5,76,0.00,,,0.00,VWS V14.01,2013-08-28 23:23:00,
2013-08-28 18:28:00,82.9,74.9,30.07,ENE,68,3.3,3.3,77,0.00,,,0.00,VWS V14.01,2013-08-28 23:28:00,
2013-08-28 18:33:00,82.5,74.6,30.07,NE,45,7.1,7.1,77,0.00,,,0.00,VWS V14.01,2013-08-28 23:33:00,
2013-08-28 18:38:00,82.4,74.5,30.07,East,90,5.8,5.8,77,0.00,,,0.00,VWS V14.01,2013-08-28 23:38:00,
2013-08-28 18:43:00,82.2,74.3,30.07,ENE,68,5.8,5.8,77,0.00,,,0.00,VWS V14.01,2013-08-28 23:43:00,
2013-08-28 18:48:00,82.2,74.3,30.07,ENE,68,4.0,4.0,77,0.00,,,0.00,VWS V14.01,2013-08-28 23:48:00,
2013-08-28 18:53:00,82.0,74.1,30.07,ENE,68,5.8,5.8,77,0.00,,,0.00,VWS V14.01,2013-08-28 23:53:00,
2013-08-28 18:58:00,81.6,74.1,30.07,NE,45,5.5,5.5,78,0.00,,,0.00,VWS V14.01,2013-08-28 23:58:00,
2013-08-28 19:03:00,81.5,74.0,30.07,ENE,68,7.1,7.1,78,0.00,,,0.00,VWS V14.01,2013-08-29 00:03:00,
2013-08-28 19:08:00,81.1,73.6,30.07,ENE,68,7.1,7.1,78,0.00,,,0.00,VWS V14.01,2013-08-29 00:08:00,
2013-08-28 19:13:00,80.9,73.8,30.07,East,90,2.9,2.9,79,0.00,,,0.00,VWS V14.01,2013-08-29 00:13:00,
2013-08-28 19:18:00,80.7,73.6,30.08,NE,45,6.0,6.0,79,0.00,,,0.00,VWS V14.01,2013-08-29 00:18:00,
2013-08-28 19:23:00,80.4,73.7,30.07,ENE,68,3.8,3.8,80,0.00,,,0.00,VWS V14.01,2013-08-29 00:23:00,
2013-08-28 19:28:00,80.2,73.5,30.08,NE,45,4.4,4.4,80,0.00,,,0.00,VWS V14.01,2013-08-29 00:28:00,
2013-08-28 19:33:00,79.8,73.1,30.08,NE,45,2.2,2.2,80,0.00,,,0.00,VWS V14.01,2013-08-29 00:33:00,
2013-08-28 19:38:00,79.7,73.4,30.09,NE,45,2.4,2.4,81,0.00,,,0.00,VWS V14.01,2013-08-29 00:38:00,
2013-08-28 19:43:00,79.5,73.2,30.09,NE,45,3.5,3.5,81,0.00,,,0.00,VWS V14.01,2013-08-29 00:43:00,
2013-08-28 19:48:00,79.5,73.2,30.09,NE,45,2.9,2.9,81,0.00,,,0.00,VWS V14.01,2013-08-29 00:48:00,
2013-08-28 19:53:00,79.1,73.1,30.09,East,90,2.9,2.9,82,0.00,,,0.00,VWS V14.01,2013-08-29 00:53:00,
2013-08-28 19:58:00,79.3,73.3,30.08,ENE,68,2.9,2.9,82,0.00,,,0.00,VWS V14.01,2013-08-29 00:58:00,
2013-08-28 20:03:00,79.1,73.1,30.09,ENE,68,2.6,2.6,82,0.00,,,0.00,VWS V14.01,2013-08-29 01:03:00,
2013-08-28 20:08:00,79.1,73.1,30.09,East,90,3.5,3.5,82,0.00,,,0.00,VWS V14.01,2013-08-29 01:08:00,
2013-08-28 20:13:00,78.9,72.9,30.09,East,90,3.1,3.1,82,0.00,,,0.00,VWS V14.01,2013-08-29 01:13:00,
2013-08-28 20:18:00,78.6,72.7,30.08,ENE,68,3.3,3.3,82,0.00,,,0.00,VWS V14.01,2013-08-29 01:18:00,
2013-08-28 20:23:00,78.6,73.0,30.09,East,90,4.6,4.6,83,0.00,,,0.00,VWS V14.01,2013-08-29 01:23:00,
2013-08-28 20:28:00,78.6,73.0,30.10,ENE,68,3.5,3.5,83,0.00,,,0.00,VWS V14.01,2013-08-29 01:28:00,
2013-08-28 20:33:00,78.4,72.8,30.10,ENE,68,3.8,3.8,83,0.00,,,0.00,VWS V14.01,2013-08-29 01:33:00,
2013-08-28 20:38:00,78.2,72.6,30.10,ENE,68,3.5,3.5,83,0.00,,,0.00,VWS V14.01,2013-08-29 01:38:00,
2013-08-28 20:43:00,78.0,72.4,30.10,NE,45,4.9,4.9,83,0.00,,,0.00,VWS V14.01,2013-08-29 01:43:00,
2013-08-28 20:48:00,77.9,72.3,30.10,ENE,68,4.2,4.2,83,0.00,,,0.00,VWS V14.01,2013-08-29 01:48:00,
2013-08-28 20:53:00,77.7,72.1,30.10,NNE,22,2.9,2.9,83,0.00,,,0.00,VWS V14.01,2013-08-29 01:53:00,
2013-08-28 20:58:00,77.7,72.1,30.10,ENE,68,2.9,2.9,83,0.00,,,0.00,VWS V14.01,2013-08-29 01:58:00,
2013-08-28 21:03:00,77.5,71.9,30.10,ENE,68,1.3,1.3,83,0.00,,,0.00,VWS V14.01,2013-08-29 02:03:00,
2013-08-28 21:08:00,77.3,71.7,30.10,NE,45,2.2,2.2,83,0.00,,,0.00,VWS V14.01,2013-08-29 02:08:00,
2013-08-28 21:13:00,77.3,71.7,30.10,NE,45,3.5,3.5,83,0.00,,,0.00,VWS V14.01,2013-08-29 02:13:00,
2013-08-28 21:18:00,77.3,71.7,30.10,ENE,68,3.8,3.8,83,0.00,,,0.00,VWS V14.01,2013-08-29 02:18:00,
2013-08-28 21:23:00,77.1,71.5,30.10,NE,45,3.8,3.8,83,0.00,,,0.00,VWS V14.01,2013-08-29 02:23:00,
2013-08-28 21:28:00,77.1,71.5,30.10,NE,45,4.0,4.0,83,0.00,,,0.00,VWS V14.01,2013-08-29 02:28:00,
2013-08-28 21:33:00,77.0,71.4,30.10,NE,45,4.6,4.6,83,0.00,,,0.00,VWS V14.01,2013-08-29 02:33:00,
2013-08-28 21:38:00,76.8,71.6,30.10,ENE,68,4.2,4.2,84,0.00,,,0.00,VWS V14.01,2013-08-29 02:38:00,
2013-08-28 21:43:00,76.8,71.6,30.11,NE,45,5.3,5.3,84,0.00,,,0.00,VWS V14.01,2013-08-29 02:43:00,
2013-08-28 21:48:00,76.8,71.2,30.11,ENE,68,5.5,5.5,83,0.00,,,0.00,VWS V14.01,2013-08-29 02:48:00,
2013-08-28 21:53:00,76.8,71.2,30.11,NE,45,5.5,5.5,83,0.00,,,0.00,VWS V14.01,2013-08-29 02:53:00,
2013-08-28 21:58:00,76.6,71.1,30.10,ENE,68,6.7,6.7,83,0.00,,,0.00,VWS V14.01,2013-08-29 02:58:00,
2013-08-28 22:03:00,76.6,71.1,30.10,East,90,5.3,5.3,83,0.00,,,0.00,VWS V14.01,2013-08-29 03:03:00,
2013-08-28 22:07:00,76.4,70.9,30.11,ENE,68,7.3,7.3,83,0.00,,,0.00,VWS V14.01,2013-08-29 03:07:00,
2013-08-28 22:12:00,76.2,70.7,30.11,ENE,68,6.0,6.0,83,0.00,,,0.00,VWS V14.01,2013-08-29 03:12:00,
2013-08-28 22:17:00,76.1,70.6,30.11,ENE,68,5.5,5.5,83,0.00,,,0.00,VWS V14.01,2013-08-29 03:17:00,
2013-08-28 22:22:00,75.9,70.4,30.11,ENE,68,6.9,6.9,83,0.00,,,0.00,VWS V14.01,2013-08-29 03:22:00,
2013-08-28 22:27:00,75.9,70.7,30.11,ESE,112,4.4,4.4,84,0.00,,,0.00,VWS V14.01,2013-08-29 03:27:00,
2013-08-28 22:32:00,75.9,70.7,30.11,East,90,3.8,3.8,84,0.00,,,0.00,VWS V14.01,2013-08-29 03:32:00,
2013-08-28 22:37:00,75.5,70.3,30.11,NE,45,6.2,6.2,84,0.00,,,0.00,VWS V14.01,2013-08-29 03:37:00,
2013-08-28 22:42:00,75.5,70.3,30.11,East,90,4.0,4.0,84,0.00,,,0.00,VWS V14.01,2013-08-29 03:42:00,
2013-08-28 22:47:00,75.3,70.1,30.11,East,90,4.6,4.6,84,0.00,,,0.00,VWS V14.01,2013-08-29 03:47:00,
2013-08-28 22:52:00,75.3,70.1,30.11,East,90,6.7,6.7,84,0.00,,,0.00,VWS V14.01,2013-08-29 03:52:00,
2013-08-28 22:57:00,75.0,69.8,30.11,ENE,68,6.4,6.4,84,0.00,,,0.00,VWS V14.01,2013-08-29 03:57:00,
2013-08-28 23:01:00,75.0,69.8,30.11,East,90,5.5,5.5,84,0.00,,,0.00,VWS V14.01,2013-08-29 04:01:00,
2013-08-28 23:02:00,75.0,69.8,30.11,ESE,112,5.8,5.8,84,0.00,,,0.00,VWS V14.01,2013-08-29 04:02:00,
2013-08-28 23:07:00,74.8,69.7,30.11,East,90,4.0,4.0,84,0.00,,,0.00,VWS V14.01,2013-08-29 04:07:00,
2013-08-28 23:12:00,74.8,69.7,30.10,East,90,3.3,3.3,84,0.00,,,0.00,VWS V14.01,2013-08-29 04:12:00,
2013-08-28 23:17:00,74.4,69.3,30.11,East,90,2.6,2.6,84,0.00,,,0.00,VWS V14.01,2013-08-29 04:17:00,
2013-08-28 23:22:00,74.4,69.6,30.10,East,90,4.2,4.2,85,0.00,,,0.00,VWS V14.01,2013-08-29 04:22:00,
2013-08-28 23:27:00,74.4,69.6,30.11,East,90,3.3,3.3,85,0.00,,,0.00,VWS V14.01,2013-08-29 04:27:00,
2013-08-28 23:32:00,74.4,69.6,30.11,East,90,4.0,4.0,85,0.00,,,0.00,VWS V14.01,2013-08-29 04:32:00,
2013-08-28 23:37:00,74.6,69.8,30.11,East,90,4.9,4.9,85,0.00,,,0.00,VWS V14.01,2013-08-29 04:37:00,
2013-08-28 23:42:00,74.8,69.7,30.11,East,90,5.3,5.3,84,0.00,,,0.00,VWS V14.01,2013-08-29 04:42:00,
2013-08-28 23:47:00,74.8,69.7,30.11,East,90,7.6,7.6,84,0.00,,,0.00,VWS V14.01,2013-08-29 04:47:00,
2013-08-28 23:52:00,74.6,69.4,30.11,ENE,68,4.6,4.6,84,0.00,,,0.00,VWS V14.01,2013-08-29 04:52:00,
2013-08-28 23:57:00,74.3,69.2,30.11,ENE,68,6.9,6.9,84,0.00,,,0.00,VWS V14.01,2013-08-29 04:57:00,